createdAt,value
2019-04-16T00:02:18.561Z,21.10
2019-04-16T00:05:00.122Z,22.57
2019-04-16T00:07:58.378Z,17.73
2019-04-16T00:11:02.522Z,21.43
2019-04-16T00:13:52.169Z,20.90
2019-04-16T00:16:22.501Z,20.03
2019-04-16T00:18:58.000Z,18.77
2019-04-16T00:21:46.473Z,18.87
2019-04-16T00:24:41.757Z,18.13
2019-04-16T00:27:12.113Z,17.60
2019-04-16T00:29:42.457Z,18.70
2019-04-16T00:32:27.597Z,20.23
2019-04-16T00:34:57.804Z,17.93
2019-04-16T00:37:28.045Z,17.17
2019-04-16T00:39:58.234Z,19.23
2019-04-16T00:42:28.533Z,18.43
2019-04-16T00:44:58.827Z,17.20
2019-04-16T00:47:29.153Z,24.80
2019-04-16T00:49:59.656Z,17.03
2019-04-16T00:52:30.236Z,17.53
2019-04-16T00:55:00.503Z,17.43
2019-04-16T00:57:30.790Z,20.17
2019-04-16T01:00:01.132Z,18.70
2019-04-16T01:02:31.451Z,21.07
2019-04-16T01:05:01.764Z,18.90
2019-04-16T01:07:32.065Z,18.60
2019-04-16T01:10:02.354Z,18.47
2019-04-16T01:12:32.589Z,19.87
2019-04-16T01:15:02.973Z,17.50
2019-04-16T01:17:35.797Z,22.83
2019-04-16T01:20:05.831Z,18.83
2019-04-16T01:22:36.142Z,18.73
2019-04-16T01:25:06.441Z,20.07
2019-04-16T01:27:40.389Z,20.50
2019-04-16T01:30:12.338Z,20.37
2019-04-16T01:32:58.961Z,19.73
2019-04-16T01:35:51.538Z,20.20
2019-04-16T01:38:28.609Z,20.97
2019-04-16T01:41:10.631Z,18.67
2019-04-16T01:43:40.895Z,18.33
2019-04-16T01:46:11.163Z,20.33
2019-04-16T01:48:41.464Z,20.70
2019-04-16T01:51:12.603Z,22.23
2019-04-16T01:53:43.749Z,22.03
2019-04-16T01:56:13.912Z,19.53
2019-04-16T01:58:44.093Z,22.17
2019-04-16T02:01:14.349Z,24.37
2019-04-16T02:03:48.586Z,23.33
2019-04-16T02:06:16.446Z,21.13
2019-04-16T02:08:46.730Z,20.67
2019-04-16T02:11:17.013Z,24.07
2019-04-16T02:13:47.255Z,21.60
2019-04-16T02:16:17.476Z,20.07
2019-04-16T02:18:47.841Z,20.17
2019-04-16T02:21:18.153Z,20.27
2019-04-16T02:23:48.805Z,19.23
2019-04-16T02:26:20.556Z,24.23
2019-04-16T02:28:50.988Z,21.17
2019-04-16T02:31:21.313Z,21.80
2019-04-16T02:33:51.609Z,21.27
2019-04-16T02:36:21.808Z,20.77
2019-04-16T02:38:53.341Z,22.77
2019-04-16T02:41:24.764Z,19.27
2019-04-16T02:43:55.161Z,23.43
2019-04-16T02:46:30.857Z,23.37
2019-04-16T02:48:57.528Z,25.37
2019-04-16T02:52:05.157Z,24.93
2019-04-16T02:54:54.513Z,21.80
2019-04-16T02:57:49.405Z,27.77
2019-04-16T03:00:30.047Z,27.23
2019-04-16T03:03:04.805Z,25.40
2019-04-16T03:05:40.850Z,21.03
2019-04-16T03:08:11.059Z,19.07
2019-04-16T03:10:41.762Z,20.60
2019-04-16T03:13:13.559Z,17.73
2019-04-16T03:16:12.322Z,18.87
2019-04-16T03:18:55.941Z,20.97
2019-04-16T03:21:27.543Z,21.30
2019-04-16T03:23:58.034Z,19.10
2019-04-16T03:26:28.326Z,20.57
2019-04-16T03:28:59.436Z,20.07
2019-04-16T03:31:29.835Z,20.53
2019-04-16T03:34:00.050Z,22.73
2019-04-16T03:36:30.403Z,19.77
2019-04-16T03:39:00.661Z,18.03
2019-04-16T03:41:30.968Z,20.60
2019-04-16T03:44:04.212Z,21.47
2019-04-16T03:46:33.225Z,23.10
2019-04-16T03:49:03.529Z,23.50
2019-04-16T03:51:35.584Z,20.60
2019-04-16T03:54:06.030Z,19.60
2019-04-16T03:56:36.289Z,23.43
2019-04-16T03:59:10.541Z,24.90
2019-04-16T04:01:38.612Z,26.30
2019-04-16T04:04:08.822Z,25.47
2019-04-16T04:06:39.519Z,24.57
2019-04-16T04:09:10.869Z,22.33
2019-04-16T04:11:41.970Z,21.07
2019-04-16T04:14:12.271Z,20.93
2019-04-16T04:16:42.445Z,21.27
2019-04-16T04:19:15.145Z,21.80
2019-04-16T04:21:44.666Z,21.60
2019-04-16T04:24:14.985Z,23.07
2019-04-16T04:26:45.313Z,22.63
2019-04-16T04:29:15.832Z,21.63
2019-04-16T04:31:46.176Z,20.80
2019-04-16T04:34:17.224Z,21.57
2019-04-16T04:36:47.910Z,22.13
2019-04-16T04:39:18.288Z,26.30
2019-04-16T04:41:48.510Z,26.27
2019-04-16T04:44:18.722Z,22.33
2019-04-16T04:46:49.012Z,20.53
2019-04-16T04:49:19.250Z,23.60
2019-04-16T04:51:49.525Z,20.17
2019-04-16T04:54:22.540Z,28.70
2019-04-16T04:56:51.816Z,23.13
2019-04-16T04:59:22.164Z,21.80
2019-04-16T05:01:52.496Z,25.33
2019-04-16T05:04:34.291Z,24.63
2019-04-16T05:07:06.229Z,25.23
2019-04-16T05:09:36.871Z,26.63
2019-04-16T05:12:08.322Z,27.70
2019-04-16T05:14:50.887Z,31.00
2019-04-16T05:17:22.030Z,29.83
2019-04-16T05:19:52.270Z,28.03
2019-04-16T05:22:22.589Z,29.47
2019-04-16T05:24:52.915Z,32.23
2019-04-16T05:27:23.213Z,34.23
2019-04-16T05:29:53.509Z,33.83
2019-04-16T05:32:25.882Z,30.50
2019-04-16T05:34:55.717Z,30.57
2019-04-16T05:37:25.924Z,46.00
2019-04-16T05:39:58.600Z,30.80
2019-04-16T05:42:28.183Z,33.87
2019-04-16T05:44:58.512Z,29.40
2019-04-16T05:47:28.801Z,35.47
2019-04-16T05:49:59.096Z,33.93
2019-04-16T05:52:29.366Z,35.63
2019-04-16T05:55:21.718Z,45.77
2019-04-16T05:57:52.129Z,40.50
2019-04-16T06:00:42.313Z,33.90
2019-04-16T06:03:12.683Z,36.97
2019-04-16T06:05:42.948Z,35.07
2019-04-16T06:08:13.274Z,27.00
2019-04-16T06:10:43.537Z,31.30
2019-04-16T06:13:33.318Z,26.17
2019-04-16T06:16:23.906Z,31.70
2019-04-16T06:19:19.977Z,26.90
2019-04-16T06:22:05.281Z,33.17
2019-04-16T06:24:49.132Z,27.13
2019-04-16T06:27:53.373Z,27.03
2019-04-16T06:30:35.809Z,30.67
2019-04-16T06:33:09.447Z,27.23
2019-04-16T06:36:03.744Z,26.80
2019-04-16T06:38:41.787Z,29.90
2019-04-16T06:41:40.941Z,26.97
2019-04-16T06:44:04.110Z,27.80
2019-04-16T06:47:02.704Z,32.83
2019-04-16T06:49:57.450Z,27.63
2019-04-16T06:52:46.241Z,30.63
2019-04-16T06:55:25.356Z,27.90
2019-04-16T06:58:20.986Z,37.87
2019-04-16T07:01:13.160Z,37.37
2019-04-16T07:03:47.382Z,44.80
2019-04-16T07:06:54.818Z,32.67
2019-04-16T07:09:41.116Z,38.83
2019-04-16T07:12:21.933Z,30.90
2019-04-16T07:14:52.275Z,31.73
2019-04-16T07:17:22.570Z,28.33
2019-04-16T07:19:52.809Z,28.67
2019-04-16T07:22:23.142Z,26.03
2019-04-16T07:24:57.560Z,32.43
2019-04-16T07:27:38.678Z,25.07
2019-04-16T07:30:19.851Z,27.37
2019-04-16T07:32:56.169Z,24.73
2019-04-16T07:35:50.141Z,20.93
2019-04-16T07:38:27.694Z,22.83
2019-04-16T07:41:23.098Z,26.03
2019-04-16T07:44:08.172Z,21.57
2019-04-16T07:46:57.357Z,23.23
2019-04-16T07:49:38.167Z,27.20
2019-04-16T07:52:38.938Z,22.77
2019-04-16T07:55:27.573Z,21.30
2019-04-16T07:57:57.997Z,21.47
2019-04-16T08:00:28.300Z,22.60
2019-04-16T08:02:58.626Z,21.40
2019-04-16T08:05:28.969Z,23.90
2019-04-16T08:07:59.264Z,22.90
2019-04-16T08:10:29.577Z,22.87
2019-04-16T08:13:09.261Z,25.67
2019-04-16T08:15:39.591Z,23.47
2019-04-16T08:18:09.907Z,25.17
2019-04-16T08:20:40.208Z,25.03
2019-04-16T08:23:29.350Z,26.43
2019-04-16T08:26:03.667Z,22.87
2019-04-16T08:28:32.073Z,24.97
2019-04-16T08:31:03.094Z,24.50
2019-04-16T08:33:33.383Z,24.10
2019-04-16T08:36:03.618Z,24.83
2019-04-16T08:38:34.964Z,27.33
2019-04-16T08:41:05.427Z,24.23
2019-04-16T08:43:35.761Z,24.07
2019-04-16T08:46:09.988Z,25.80
2019-04-16T08:48:38.060Z,25.43
2019-04-16T08:51:08.415Z,29.17
2019-04-16T08:53:38.788Z,23.47
2019-04-16T08:56:09.037Z,27.97
2019-04-16T08:58:39.305Z,23.23
2019-04-16T09:01:11.457Z,24.87
2019-04-16T09:03:41.800Z,27.93
2019-04-16T09:06:13.547Z,26.90
2019-04-16T09:09:13.965Z,27.83
2019-04-16T09:11:43.781Z,27.07
2019-04-16T09:14:20.031Z,27.27
2019-04-16T09:17:14.123Z,27.10
2019-04-16T09:19:49.518Z,28.00
2019-04-16T09:22:19.809Z,26.10
2019-04-16T09:24:56.456Z,22.97
2019-04-16T09:27:34.241Z,28.60
2019-04-16T09:30:23.079Z,29.93
2019-04-16T09:33:11.836Z,27.47
2019-04-16T09:35:52.372Z,26.63
2019-04-16T09:38:36.394Z,27.27
2019-04-16T09:41:27.402Z,27.30
2019-04-16T09:43:58.965Z,25.07
2019-04-16T09:46:49.993Z,27.70
2019-04-16T09:49:04.788Z,26.70
2019-04-16T09:51:33.894Z,24.13
2019-04-16T09:54:04.153Z,26.03
2019-04-16T09:56:34.465Z,26.77
2019-04-16T09:59:07.595Z,26.70
2019-04-16T10:01:41.468Z,24.53
2019-04-16T10:04:14.158Z,26.70
2019-04-16T10:06:44.457Z,26.60
2019-04-16T10:09:20.101Z,31.80
2019-04-16T10:11:46.662Z,26.60
2019-04-16T10:14:17.043Z,25.83
2019-04-16T10:16:47.409Z,30.33
2019-04-16T10:19:21.038Z,24.97
2019-04-16T10:21:52.943Z,25.40
2019-04-16T10:24:40.722Z,27.17
2019-04-16T10:27:15.340Z,25.87
2019-04-16T10:29:45.620Z,23.20
2019-04-16T10:32:18.329Z,24.27
2019-04-16T10:34:48.176Z,25.80
2019-04-16T10:37:18.446Z,25.07
2019-04-16T10:39:57.724Z,27.07
2019-04-16T10:42:45.688Z,24.97
2019-04-16T10:45:33.784Z,25.83
2019-04-16T10:48:32.347Z,26.33
2019-04-16T10:51:15.293Z,24.97
2019-04-16T10:53:56.030Z,28.00
2019-04-16T10:56:56.886Z,27.97
2019-04-16T10:59:40.598Z,31.80
2019-04-16T11:02:33.301Z,28.70
2019-04-16T11:05:14.973Z,25.23
2019-04-16T11:07:45.196Z,26.17
2019-04-16T11:10:15.630Z,25.60
2019-04-16T11:12:46.080Z,26.00
2019-04-16T11:15:20.230Z,24.07
2019-04-16T11:17:50.642Z,23.70
2019-04-16T11:20:21.068Z,24.53
2019-04-16T11:22:54.548Z,22.00
2019-04-16T11:25:49.322Z,24.13
2019-04-16T11:28:31.046Z,25.30
2019-04-16T11:31:15.058Z,22.97
2019-04-16T11:33:57.281Z,25.80
2019-04-16T11:36:39.247Z,27.10
2019-04-16T11:39:21.427Z,23.00
2019-04-16T11:42:03.683Z,26.93
2019-04-16T11:47:35.350Z,24.77
2019-04-16T11:50:17.090Z,20.90
2019-04-16T11:52:58.902Z,22.07
2019-04-16T11:58:57.402Z,20.87
2019-04-16T12:02:24.531Z,24.33
2019-04-16T12:05:32.908Z,22.67
2019-04-16T12:08:43.032Z,21.43
2019-04-16T12:11:51.420Z,20.50
2019-04-16T12:18:23.074Z,22.07
2019-04-16T12:21:12.345Z,22.10
2019-04-16T12:24:13.772Z,26.33
2019-04-16T12:30:03.880Z,22.47
2019-04-16T12:33:07.517Z,22.87
2019-04-16T12:42:32.870Z,21.47
2019-04-16T12:45:33.729Z,24.73
2019-04-16T12:48:29.235Z,23.20
2019-04-16T12:51:39.615Z,23.80
2019-04-16T12:54:49.949Z,21.37
2019-04-16T13:01:19.545Z,22.77
2019-04-16T13:04:10.604Z,22.63
2019-04-16T13:07:12.051Z,23.03
2019-04-16T13:09:59.277Z,23.53
2019-04-16T13:13:00.539Z,20.07
2019-04-16T13:16:01.307Z,22.67
2019-04-16T13:19:02.026Z,20.83
2019-04-16T13:21:48.910Z,21.23
2019-04-16T13:24:50.114Z,21.07
2019-04-16T13:27:39.362Z,25.17
2019-04-16T13:30:28.776Z,21.53
2019-04-16T13:33:18.064Z,19.40
2019-04-16T13:36:07.482Z,21.07
2019-04-16T13:42:17.836Z,23.70
2019-04-16T13:45:45.598Z,19.83
2019-04-16T13:48:54.026Z,19.13
2019-04-16T13:52:04.404Z,18.20
2019-04-16T13:55:12.759Z,22.13
2019-04-16T14:04:49.936Z,20.30
2019-04-16T14:07:39.434Z,20.57
2019-04-16T14:10:28.812Z,19.60
2019-04-16T14:13:18.238Z,18.30
2019-04-16T14:16:00.675Z,22.83
2019-04-16T14:18:43.024Z,22.63
2019-04-16T14:21:25.105Z,21.73
2019-04-16T14:24:07.478Z,23.90
2019-04-16T14:26:49.290Z,20.70
2019-04-16T14:29:31.545Z,22.87
2019-04-16T14:32:14.210Z,18.97
2019-04-16T14:35:00.831Z,21.90
2019-04-16T14:37:42.825Z,23.60
2019-04-16T14:46:29.156Z,19.87
2019-04-16T14:49:39.103Z,21.60
2019-04-16T14:52:28.596Z,22.33
2019-04-16T14:55:36.952Z,21.70
2019-04-16T14:58:45.231Z,20.20
2019-04-16T15:01:34.690Z,22.57
2019-04-16T15:04:43.812Z,21.47
2019-04-16T15:07:52.240Z,19.50
2019-04-16T15:11:00.631Z,19.67
2019-04-16T15:13:46.849Z,19.53
2019-04-16T15:19:46.892Z,21.77
2019-04-16T15:22:47.939Z,28.93
2019-04-16T15:25:39.010Z,22.37
2019-04-16T15:28:46.782Z,22.33
2019-04-16T15:31:26.562Z,22.90
2019-04-16T15:34:34.899Z,20.20
2019-04-16T15:37:29.378Z,19.50
2019-04-16T15:40:40.359Z,21.80
2019-04-16T15:44:07.499Z,19.57
2019-04-16T15:47:15.901Z,18.10
2019-04-16T15:50:26.740Z,16.10
2019-04-16T15:53:53.407Z,17.13
2019-04-16T15:57:02.983Z,18.27
2019-04-16T16:00:11.963Z,15.63
2019-04-16T16:06:28.780Z,18.70
2019-04-16T16:09:37.558Z,17.67
2019-04-16T16:12:50.675Z,16.07
2019-04-16T16:15:50.458Z,18.43
2019-04-16T16:18:32.315Z,17.30
2019-04-16T16:21:14.212Z,19.37
2019-04-16T16:23:56.220Z,14.80
2019-04-16T16:26:38.865Z,15.40
2019-04-16T16:29:20.386Z,16.95
2019-04-16T16:32:02.547Z,15.77
2019-04-16T16:34:44.827Z,17.53
2019-04-16T16:40:26.912Z,15.87
2019-04-16T16:43:09.263Z,23.43
2019-04-16T16:46:10.368Z,19.57
2019-04-16T16:55:59.947Z,23.73
2019-04-16T16:59:06.679Z,14.77
2019-04-16T17:02:10.028Z,18.17
2019-04-16T17:05:03.674Z,16.03
2019-04-16T17:10:15.349Z,17.07
2019-04-16T17:12:58.802Z,18.57
2019-04-16T17:15:40.619Z,18.00
2019-04-16T17:18:22.892Z,14.77
2019-04-16T17:21:06.019Z,21.30
2019-04-16T17:23:47.871Z,19.27
2019-04-16T17:29:55.406Z,16.43
2019-04-16T17:32:36.945Z,16.00
2019-04-16T17:35:19.114Z,15.10
2019-04-16T17:38:03.447Z,16.87
2019-04-16T17:41:09.862Z,17.87
2019-04-16T17:47:50.811Z,14.90
2019-04-16T17:51:05.517Z,16.23
2019-04-16T17:54:06.487Z,13.90
2019-04-16T18:07:24.793Z,12.07
2019-04-16T18:10:27.777Z,10.40
2019-04-16T18:13:15.370Z,13.40
2019-04-16T18:19:56.856Z,10.63
2019-04-16T18:22:44.974Z,16.80
2019-04-16T18:26:06.371Z,11.77
2019-04-16T18:29:13.290Z,12.00
2019-04-16T18:32:03.843Z,12.93
2019-04-16T18:35:24.482Z,15.53
2019-04-16T18:41:42.527Z,14.03
2019-04-16T18:44:43.578Z,18.30
2019-04-16T18:47:32.913Z,14.87
2019-04-16T18:50:22.131Z,13.53
2019-04-16T18:56:47.417Z,9.37
2019-04-16T18:59:29.649Z,10.93
2019-04-16T19:05:37.623Z,13.60
2019-04-16T19:08:19.259Z,17.53
2019-04-16T19:11:01.574Z,10.40
2019-04-16T19:13:42.020Z,9.53
2019-04-16T19:16:31.368Z,10.83
2019-04-16T19:19:22.284Z,9.73
2019-04-16T19:22:31.423Z,9.70
2019-04-16T19:25:20.874Z,11.67
2019-04-16T19:28:10.301Z,9.87
2019-04-16T19:31:22.729Z,11.87
2019-04-16T19:34:28.874Z,13.10
2019-04-16T19:37:19.157Z,11.00
2019-04-16T19:43:02.627Z,11.53
2019-04-16T19:46:08.478Z,14.07
2019-04-16T19:49:00.516Z,14.83
2019-04-16T19:52:08.853Z,12.43
2019-04-16T19:54:58.491Z,14.00
2019-04-16T19:58:07.660Z,11.20
2019-04-16T20:00:59.068Z,11.37
2019-04-16T20:04:10.726Z,14.87
2019-04-16T20:07:18.589Z,12.70
2019-04-16T20:10:27.417Z,15.55
2019-04-16T20:13:16.770Z,14.93
2019-04-16T20:16:06.073Z,14.07
2019-04-16T20:18:51.361Z,13.83
2019-04-16T20:21:32.047Z,15.00
2019-04-16T20:24:13.995Z,14.00
2019-04-16T20:32:47.804Z,13.53
2019-04-16T20:35:29.834Z,12.27
2019-04-16T20:38:12.131Z,11.83
2019-04-16T20:40:54.206Z,12.27
2019-04-16T20:43:35.834Z,14.00
2019-04-16T20:46:18.275Z,14.13
2019-04-16T20:49:08.757Z,13.53
2019-04-16T20:51:44.297Z,15.57
2019-04-16T20:57:55.233Z,12.93
2019-04-16T21:03:23.274Z,12.53
2019-04-16T21:06:07.827Z,12.70
2019-04-16T21:08:49.478Z,13.30
2019-04-16T21:11:31.840Z,14.57
2019-04-16T21:14:14.265Z,14.30
2019-04-16T21:20:36.033Z,13.47
2019-04-16T21:26:44.326Z,11.37
2019-04-16T21:32:49.526Z,12.90
2019-04-16T21:39:17.440Z,14.53
2019-04-16T21:42:27.159Z,13.30
2019-04-16T21:44:57.490Z,13.07
2019-04-16T21:50:57.084Z,13.67
2019-04-16T21:53:46.549Z,14.83
2019-04-16T21:56:36.843Z,11.00
2019-04-16T21:59:45.874Z,12.77
2019-04-16T22:06:00.705Z,11.77
2019-04-16T22:12:40.177Z,12.50
2019-04-16T22:15:29.570Z,13.17
2019-04-16T22:18:11.446Z,12.73
2019-04-16T22:20:53.230Z,14.90
2019-04-16T22:23:35.565Z,16.23
2019-04-16T22:26:17.679Z,18.43
2019-04-16T22:29:01.472Z,16.00
2019-04-16T22:31:43.797Z,14.00
2019-04-16T22:34:26.101Z,13.90
2019-04-16T22:37:08.561Z,16.27
2019-04-16T22:40:09.221Z,13.13
2019-04-16T22:43:10.212Z,12.93
2019-04-16T22:45:57.262Z,14.73
2019-04-16T22:48:41.209Z,16.93
2019-04-16T22:51:43.157Z,17.23
2019-04-16T22:54:25.749Z,18.40
2019-04-16T22:57:09.917Z,16.60
2019-04-16T22:59:51.497Z,14.53
2019-04-16T23:02:33.465Z,13.90
2019-04-16T23:05:15.577Z,16.73
2019-04-16T23:07:57.836Z,14.07
2019-04-16T23:14:05.090Z,17.93
2019-04-16T23:16:47.182Z,16.33
2019-04-16T23:19:29.382Z,15.17
2019-04-16T23:22:14.192Z,16.23
2019-04-16T23:28:03.734Z,14.37
2019-04-16T23:30:48.000Z,16.13
2019-04-16T23:33:32.608Z,14.77
2019-04-16T23:36:16.506Z,18.90
2019-04-16T23:38:57.621Z,16.47
2019-04-16T23:45:31.446Z,16.73
2019-04-16T23:48:52.075Z,16.03
2019-04-16T23:51:38.079Z,16.00
2019-04-16T23:54:24.285Z,14.40
2019-04-16T23:57:11.694Z,14.53
